.
WxDataArchive / Data Records for 2007-06-03
2007-06-02 June 2007 2007-06-04

Data Records for Sunday, 03 June 2007

Time	Temp	Chill	HIndex	Humid	Dewpt	 Wind 	HiWind	WindDir	Rain 	Barom 
-----	----	-----	------	-----	-----	------	------	-------	-----	----- 
00:00	66.8	66.8	66.8	94	65.0	0	0	---	0.00	29.666 
00:05	66.8	66.8	66.8	94	65.0	0	0	---	0.00	29.664 
00:10	66.6	66.6	66.6	94	64.8	0	0	---	0.00	29.664 
00:15	66.6	66.6	66.6	94	64.8	0	0	---	0.00	29.659 
00:20	66.4	66.4	66.4	95	64.9	0	0	---	0.00	29.657 
00:25	66.4	66.4	66.4	95	64.9	0	0	---	0.00	29.652 
00:30	66.4	66.4	66.4	95	64.9	0	0	---	0.00	29.651 
00:35	66.3	66.3	66.3	95	64.8	0	0	---	0.00	29.650 
00:40	66.3	66.3	66.3	95	64.8	0	0	---	0.00	29.649 
00:45	66.1	66.1	66.1	95	64.6	0	0	---	0.00	29.649 
00:50	66.0	66.0	66.0	95	64.5	0	0	---	0.00	29.650 
00:55	66.0	66.0	66.0	95	64.5	0	0	---	0.00	29.650 
01:00	66.0	66.0	66.0	95	64.5	0	0	---	0.00	29.649 
01:05	65.8	65.8	65.8	95	64.3	0	0	---	0.00	29.650 
01:10	65.6	65.6	65.6	95	64.1	0	0	---	0.00	29.649 
01:15	65.6	65.6	65.6	95	64.1	0	0	---	0.00	29.648 
01:20	65.6	65.6	65.6	95	64.1	0	0	---	0.00	29.650 
01:25	65.6	65.6	65.6	95	64.1	0	0	---	0.00	29.649 
01:30	65.6	65.6	65.6	95	64.1	0	0	---	0.00	29.648 
01:35	65.6	65.6	65.6	96	64.4	0	0	---	0.00	29.644 
01:40	65.5	65.5	65.5	96	64.3	0	0	---	0.00	29.643 
01:45	65.5	65.5	65.5	95	64.0	0	0	---	0.00	29.641 
01:50	65.3	65.3	65.3	96	64.1	0	0	---	0.00	29.641 
01:55	65.3	65.3	65.3	96	64.1	0	0	---	0.00	29.640 
02:00	65.3	65.3	65.3	96	64.1	0	0	---	0.00	29.638 
02:05	65.3	65.3	65.3	96	64.1	0	0	---	0.00	29.635 
02:10	65.3	65.3	65.3	96	64.1	0	0	---	0.00	29.634 
02:15	65.3	65.3	65.3	96	64.1	0	0	---	0.00	29.634 
02:20	65.2	65.2	65.2	96	64.0	0	0	---	0.00	29.632 
02:25	65.0	65.0	65.0	96	63.8	0	0	---	0.00	29.631 
02:30	65.0	65.0	65.0	96	63.8	0	0	---	0.00	29.632 
02:35	64.8	64.8	64.8	96	63.6	0	0	---	0.00	29.632 
02:40	64.8	64.8	64.8	96	63.6	0	0	---	0.00	29.631 
02:45	65.0	65.0	65.0	96	63.8	0	1	270	0.00	29.627 
02:50	65.0	65.0	65.0	96	63.8	0	0	---	0.00	29.625 
02:55	65.0	65.0	65.0	96	63.8	0	1	270	0.00	29.623 
03:00	65.2	65.2	65.2	96	64.0	0	1	270	0.00	29.620 
03:05	65.2	65.2	65.2	96	64.0	0	0	---	0.00	29.626 
03:10	65.2	65.2	65.2	96	64.0	0	0	---	0.00	29.626 
03:15	65.2	65.2	65.2	96	64.0	0	0	---	0.00	29.626 
03:20	65.2	65.2	65.2	96	64.0	0	0	---	0.00	29.625 
03:25	65.2	65.2	65.2	96	64.0	0	0	---	0.00	29.625 
03:30	65.2	65.2	65.2	96	64.0	0	0	---	0.00	29.624 
03:35	65.3	65.3	65.3	96	64.1	0	0	---	0.00	29.620 
03:40	65.3	65.3	65.3	96	64.1	0	0	---	0.00	29.616 
03:45	65.3	65.3	65.3	96	64.1	0	0	---	0.00	29.613 
03:50	65.3	65.3	65.3	96	64.1	0	0	---	0.00	29.611 
03:55	65.5	65.5	65.5	97	64.6	0	1	270	0.00	29.609 
04:00	65.5	65.5	65.5	97	64.6	0	1	270	0.00	29.606 
04:05	65.5	65.5	65.5	96	64.3	0	0	---	0.00	29.605 
04:10	65.5	65.5	65.5	96	64.3	0	0	---	0.00	29.603 
04:15	65.3	65.3	65.3	96	64.1	0	0	---	0.00	29.604 
04:20	65.3	65.3	65.3	96	64.1	0	0	---	0.00	29.601 
04:25	65.2	65.2	65.2	96	64.0	0	0	---	0.00	29.596 
04:30	65.2	65.2	65.2	96	64.0	0	0	---	0.00	29.594 
04:35	65.0	65.0	65.0	96	63.8	0	0	---	0.00	29.594 
04:40	65.0	65.0	65.0	96	63.8	0	0	---	0.00	29.594 
04:45	65.0	65.0	65.0	96	63.8	0	0	---	0.00	29.594 
04:50	65.0	65.0	65.0	96	63.8	0	0	---	0.00	29.593 
04:55	65.0	65.0	65.0	96	63.8	0	0	---	0.00	29.594 
05:00	65.0	65.0	65.0	96	63.8	0	0	---	0.00	29.594 
05:05	65.0	65.0	65.0	96	63.8	0	0	---	0.00	29.595 
05:10	65.0	65.0	65.0	96	63.8	0	0	---	0.00	29.596 
05:15	65.0	65.0	65.0	96	63.8	0	0	---	0.00	29.596 
05:20	65.0	65.0	65.0	96	63.8	0	0	---	0.00	29.596 
05:25	64.8	64.8	64.8	96	63.6	0	0	---	0.00	29.596 
05:30	64.8	64.8	64.8	96	63.6	0	0	---	0.00	29.595 
05:35	64.7	64.7	64.7	96	63.5	0	0	---	0.00	29.595 
05:40	64.7	64.7	64.7	96	63.5	0	0	---	0.00	29.595 
05:45	64.7	64.7	64.7	96	63.5	0	0	---	0.00	29.596 
05:50	64.5	64.5	64.5	96	63.3	0	0	---	0.00	29.596 
05:55	64.5	64.5	64.5	96	63.3	0	0	---	0.00	29.596 
06:00	64.7	64.7	64.7	97	63.8	0	0	---	0.00	29.596 
06:05	64.7	64.7	64.7	97	63.8	0	0	---	0.00	29.600 
06:10	64.8	64.8	64.8	97	63.9	0	0	---	0.00	29.601 
06:15	65.0	65.0	65.0	97	64.1	0	0	---	0.00	29.602 
06:20	65.2	65.2	65.2	97	64.3	0	0	---	0.00	29.600 
06:25	65.3	65.3	65.3	97	64.4	0	0	---	0.00	29.600 
06:30	65.5	65.5	65.5	97	64.6	0	0	---	0.00	29.598 
06:35	65.5	65.5	65.5	97	64.6	0	0	---	0.00	29.599 
06:40	65.6	65.6	65.6	97	64.7	0	0	---	0.00	29.598 
06:45	65.8	65.8	65.8	97	64.9	0	0	---	0.00	29.597 
06:50	66.0	66.0	66.0	97	65.1	0	0	---	0.00	29.596 
06:55	66.3	66.3	66.3	97	65.4	0	0	---	0.00	29.596 
07:00	66.4	66.4	66.4	97	65.5	0	0	---	0.00	29.597 
07:05	66.6	66.6	66.6	97	65.7	0	0	---	0.00	29.599 
07:10	66.8	66.8	66.8	96	65.6	0	0	---	0.00	29.599 
07:15	66.9	66.9	66.9	96	65.7	0	0	---	0.00	29.598 
07:20	67.3	67.3	67.3	96	66.1	0	1	270	0.00	29.599 
07:25	67.6	67.6	67.6	95	66.1	0	0	---	0.00	29.600 
07:30	67.8	67.8	67.8	95	66.3	0	1	270	0.00	29.600 
07:35	67.9	67.9	67.9	94	66.1	0	1	270	0.00	29.599 
07:40	68.3	68.3	68.3	93	66.2	0	1	270	0.00	29.598 
07:45	68.4	68.4	68.4	91	65.7	0	1	270	0.00	29.598 
07:50	68.6	68.6	68.6	90	65.5	0	1	270	0.00	29.596 
07:55	68.9	68.9	68.9	89	65.5	0	1	270	0.00	29.594 
08:00	69.1	69.1	69.1	88	65.4	0	1	270	0.00	29.593 
08:05	69.4	69.4	69.4	86	65.0	0	1	270	0.00	29.593 
08:10	69.8	69.8	69.8	86	65.4	0	1	270	0.00	29.592 
08:15	70.1	70.1	70.1	84	65.0	0	1	270	0.00	29.589 
08:20	70.3	70.3	70.3	82	64.5	0	1	270	0.00	29.585 
08:25	70.4	70.4	70.4	82	64.6	0	1	270	0.00	29.583 
08:30	70.6	70.6	70.6	81	64.5	0	1	270	0.00	29.582 
08:35	70.9	70.9	70.9	79	64.1	0	0	---	0.00	29.581 
08:40	71.3	71.3	71.3	80	64.8	0	0	---	0.00	29.580 
08:45	71.5	71.5	71.5	80	65.0	0	0	---	0.00	29.579 
08:50	71.6	71.6	71.6	78	64.4	0	1	270	0.00	29.578 
08:55	71.6	71.6	71.6	78	64.4	0	0	---	0.00	29.575 
09:00	71.6	71.6	71.6	77	64.0	0	0	---	0.00	29.575 
09:05	71.8	71.8	71.8	75	63.4	0	0	---	0.00	29.576 
09:10	72.1	72.1	72.1	76	64.1	0	1	270	0.00	29.578 
09:15	72.5	72.5	72.5	75	64.1	0	0	---	0.00	29.577 
09:20	73.0	73.0	73.0	76	65.0	0	1	270	0.00	29.576 
09:25	73.0	73.0	73.0	73	63.8	0	0	---	0.00	29.572 
09:30	73.2	73.2	73.2	72	63.6	0	2	270	0.00	29.570 
09:35	73.5	73.5	73.5	70	63.1	0	1	270	0.00	29.568 
09:40	74.0	74.0	74.0	72	64.4	0	1	270	0.00	29.567 
09:45	74.6	74.6	74.6	69	63.7	1	2	270	0.00	29.567 
09:50	74.9	74.9	74.9	71	64.8	1	2	270	0.00	29.567 
09:55	74.9	74.9	74.9	70	64.4	1	2	270	0.00	29.565 
10:00	75.3	75.3	77.0	70	64.8	0	1	270	0.00	29.565 
10:05	75.4	75.4	77.2	68	64.1	0	2	270	0.00	29.564 
10:10	76.0	76.0	77.7	69	65.1	0	2	270	0.00	29.565 
10:15	76.3	76.3	78.1	65	63.6	1	4	270	0.00	29.564 
10:20	76.1	76.1	77.9	67	64.3	2	4	90	0.00	29.564 
10:25	76.0	76.0	77.8	66	63.8	2	4	90	0.00	29.565 
10:30	75.8	75.8	77.6	68	64.5	2	4	90	0.00	29.560 
10:35	75.8	75.8	77.5	69	64.9	1	4	90	0.00	29.558 
10:40	76.0	76.0	77.7	68	64.7	1	3	112	0.00	29.561 
10:45	75.8	75.8	77.5	69	64.9	1	3	112	0.00	29.560 
10:50	75.8	75.8	77.4	70	65.3	1	4	112	0.00	29.560 
10:55	75.6	75.6	77.3	69	64.7	2	4	90	0.00	29.558 
11:00	76.1	76.1	77.8	70	65.6	2	3	90	0.00	29.554 
11:05	76.8	76.8	78.6	69	65.8	2	5	90	0.00	29.552 
11:10	77.0	77.0	78.8	68	65.6	2	4	90	0.00	29.550 
11:15	77.0	77.0	78.8	70	66.4	1	2	90	0.00	29.549 
11:20	77.2	77.2	79.0	67	65.4	1	3	90	0.00	29.547 
11:25	77.4	77.4	79.2	67	65.6	2	6	90	0.00	29.546 
11:30	77.4	77.4	79.2	67	65.6	0	4	112	0.00	29.543 
11:35	77.6	77.6	79.4	66	65.3	2	4	112	0.00	29.536 
11:40	77.6	77.6	79.4	66	65.3	1	4	90	0.00	29.532 
11:45	77.7	77.7	79.6	66	65.4	1	2	135	0.00	29.533 
11:50	77.4	77.4	79.2	66	65.1	1	2	135	0.00	29.532 
11:55	77.2	77.2	79.0	66	64.9	1	3	135	0.00	29.529 
12:00	76.7	76.7	78.5	67	64.9	0	2	135	0.00	29.528 
12:05	76.5	76.5	78.2	69	65.6	0	2	135	0.00	29.524 
12:10	76.3	76.3	78.0	68	64.9	0	1	135	0.00	29.519 
12:15	76.1	76.1	77.9	67	64.3	0	0	---	0.00	29.518 
12:20	75.8	75.8	77.5	69	64.9	0	2	135	0.00	29.520 
12:25	75.6	75.6	77.3	69	64.7	0	2	135	0.00	29.519 
12:30	74.6	74.6	74.6	68	63.3	2	9	248	0.00	29.537 
12:35	70.4	70.4	70.4	77	62.8	3	5	270	0.12	29.536 
12:40	66.9	66.9	66.9	82	61.2	3	6	292	0.05	29.529 
12:45	65.3	65.3	65.3	84	60.3	1	2	292	0.02	29.529 
12:50	64.7	64.7	64.7	87	60.7	0	1	292	0.03	29.528 
12:55	64.5	64.5	64.5	90	61.5	0	0	---	0.04	29.526 
13:00	64.7	64.7	64.7	92	62.3	0	2	292	0.03	29.528 
13:05	64.7	64.7	64.7	92	62.3	1	3	270	0.03	29.521 
13:10	64.8	64.8	64.8	93	62.7	1	4	225	0.05	29.522 
13:15	64.8	64.8	64.8	93	62.7	1	3	22	0.07	29.516 
13:20	65.3	65.3	65.3	93	63.2	2	6	112	0.03	29.514 
13:25	65.6	65.6	65.6	91	62.9	2	6	112	0.01	29.512 
13:30	65.8	65.8	65.8	90	62.8	1	3	68	0.00	29.509 
13:35	66.1	66.1	66.1	91	63.4	0	2	68	0.00	29.506 
13:40	66.8	66.8	66.8	92	64.4	1	4	68	0.00	29.497 
13:45	67.6	67.6	67.6	93	65.5	1	3	68	0.00	29.495 
13:50	68.3	68.3	68.3	93	66.2	0	2	68	0.00	29.493 
13:55	68.9	68.9	68.9	93	66.8	0	1	68	0.00	29.490 
14:00	69.1	69.1	69.1	88	65.4	0	1	68	0.00	29.489 
14:05	70.3	70.3	70.3	90	67.2	0	2	68	0.00	29.490 
14:10	70.9	70.9	70.9	85	66.2	1	3	68	0.00	29.491 
14:15	71.5	71.5	71.5	83	66.1	1	3	68	0.00	29.489 
14:20	71.8	71.8	71.8	83	66.3	1	3	68	0.00	29.489 
14:25	71.6	71.6	71.6	84	66.5	1	4	68	0.00	29.488 
14:30	70.9	70.9	70.9	84	65.8	1	4	68	0.00	29.479 
14:35	70.4	70.4	70.4	85	65.7	2	4	90	0.00	29.475 
14:40	70.3	70.3	70.3	86	65.9	1	4	90	0.00	29.473 
14:45	70.3	70.3	70.3	86	65.9	0	1	68	0.00	29.473 
14:50	70.8	70.8	70.8	87	66.7	0	1	68	0.00	29.471 
14:55	71.1	71.1	71.1	87	67.0	0	1	68	0.00	29.463 
15:00	71.6	71.6	71.6	87	67.5	0	2	68	0.00	29.459 
15:05	72.0	72.0	72.0	85	67.2	0	2	68	0.00	29.456 
15:10	72.5	72.5	72.5	82	66.7	0	2	68	0.00	29.458 
15:15	72.8	72.8	72.8	81	66.6	0	2	68	0.00	29.459 
15:20	72.8	72.8	72.8	80	66.3	2	7	68	0.00	29.473 
15:25	72.0	72.0	72.0	82	66.2	2	9	270	0.01	29.489 
15:30	70.4	70.4	70.4	86	66.0	2	5	248	0.11	29.500 
15:35	68.8	68.8	68.8	88	65.1	2	5	270	0.23	29.508 
15:40	66.9	66.9	66.9	88	63.2	0	2	270	0.19	29.491 
15:45	66.1	66.1	66.1	90	63.1	1	2	270	0.06	29.488 
15:50	65.6	65.6	65.6	92	63.2	1	2	270	0.02	29.479 
15:55	65.3	65.3	65.3	93	63.2	0	1	270	0.00	29.480 
16:00	65.3	65.3	65.3	93	63.2	0	1	270	0.01	29.480 
16:05	65.5	65.5	65.5	94	63.7	0	1	270	0.00	29.479 
16:10	65.6	65.6	65.6	94	63.8	0	0	---	0.00	29.479 
16:15	65.6	65.6	65.6	94	63.8	0	1	270	0.00	29.478 
16:20	65.8	65.8	65.8	94	64.0	0	0	---	0.00	29.479 
16:25	66.0	66.0	66.0	95	64.5	0	1	270	0.00	29.477 
16:30	65.8	65.8	65.8	94	64.0	0	0	---	0.00	29.469 
16:35	65.8	65.8	65.8	94	64.0	0	0	---	0.00	29.465 
16:40	66.3	66.3	66.3	95	64.8	0	1	270	0.00	29.462 
16:45	66.9	66.9	66.9	95	65.4	0	2	270	0.00	29.455 
16:50	67.9	67.9	67.9	95	66.4	0	2	270	0.00	29.450 
16:55	68.1	68.1	68.1	94	66.3	0	2	270	0.00	29.448 
17:00	68.4	68.4	68.4	92	66.0	0	2	270	0.00	29.448 
17:05	68.6	68.6	68.6	89	65.2	0	0	---	0.00	29.446 
17:10	69.1	69.1	69.1	89	65.7	0	2	270	0.00	29.453 
17:15	69.6	69.6	69.6	88	65.9	0	1	270	0.00	29.457 
17:20	69.8	69.8	69.8	88	66.1	0	0	---	0.00	29.462 
17:25	69.4	69.4	69.4	87	65.4	0	1	270	0.00	29.465 
17:30	69.4	69.4	69.4	88	65.7	0	0	---	0.00	29.462 
17:35	69.6	69.6	69.6	88	65.9	0	1	270	0.00	29.465 
17:40	69.9	69.9	69.9	85	65.2	0	2	270	0.00	29.476 
17:45	69.9	69.9	69.9	85	65.2	1	2	270	0.00	29.478 
17:50	69.8	69.8	69.8	84	64.7	0	1	270	0.00	29.478 
17:55	70.1	70.1	70.1	85	65.4	0	1	270	0.00	29.473 
18:00	70.3	70.3	70.3	84	65.2	1	2	315	0.00	29.470 
18:05	70.3	70.3	70.3	84	65.2	0	2	315	0.00	29.470 
18:10	70.3	70.3	70.3	84	65.2	0	2	315	0.00	29.472 
18:15	70.3	70.3	70.3	85	65.6	0	1	315	0.00	29.472 
18:20	70.1	70.1	70.1	84	65.0	0	1	315	0.00	29.474 
18:25	69.9	69.9	69.9	85	65.2	0	2	338	0.00	29.475 
18:30	69.6	69.6	69.6	84	64.5	0	2	338	0.00	29.476 
18:35	69.6	69.6	69.6	85	64.9	0	0	---	0.00	29.474 
18:40	69.4	69.4	69.4	85	64.7	0	1	338	0.00	29.472 
18:45	69.4	69.4	69.4	85	64.7	0	1	338	0.00	29.475 
18:50	69.4	69.4	69.4	86	65.0	0	1	338	0.00	29.475 
18:55	69.6	69.6	69.6	85	64.9	0	1	338	0.00	29.474 
19:00	69.6	69.6	69.6	85	64.9	0	2	338	0.00	29.474 
19:05	69.6	69.6	69.6	84	64.5	0	1	338	0.00	29.474 
19:10	69.6	69.6	69.6	85	64.9	0	0	---	0.00	29.475 
19:15	69.6	69.6	69.6	84	64.5	0	1	338	0.00	29.473 
19:20	69.6	69.6	69.6	85	64.9	0	0	---	0.00	29.468 
19:25	69.6	69.6	69.6	85	64.9	0	0	---	0.00	29.466 
19:30	69.4	69.4	69.4	85	64.7	0	0	---	0.00	29.468 
19:35	69.3	69.3	69.3	85	64.6	0	0	---	0.00	29.465 
19:40	69.1	69.1	69.1	86	64.7	0	0	---	0.00	29.461 
19:45	69.1	69.1	69.1	86	64.7	0	0	---	0.00	29.459 
19:50	68.9	68.9	68.9	87	64.9	0	0	---	0.00	29.459 
19:55	68.8	68.8	68.8	87	64.8	0	0	---	0.00	29.459 
20:00	68.6	68.6	68.6	88	64.9	0	0	---	0.00	29.458 
20:05	68.4	68.4	68.4	88	64.7	0	0	---	0.00	29.456 
20:10	68.3	68.3	68.3	89	64.9	0	0	---	0.00	29.456 
20:15	68.1	68.1	68.1	89	64.7	0	0	---	0.00	29.455 
20:20	67.9	67.9	67.9	90	64.9	0	0	---	0.00	29.456 
20:25	67.6	67.6	67.6	89	64.2	0	0	---	0.00	29.457 
20:30	67.3	67.3	67.3	88	63.6	0	0	---	0.00	29.459 
20:35	66.9	66.9	66.9	86	62.6	0	1	338	0.00	29.459 
20:40	66.9	66.9	66.9	87	62.9	0	0	---	0.00	29.460 
20:45	66.8	66.8	66.8	87	62.8	0	0	---	0.00	29.463 
20:50	66.6	66.6	66.6	88	62.9	0	0	---	0.00	29.468 
20:55	66.4	66.4	66.4	88	62.7	0	0	---	0.00	29.464 
21:00	66.3	66.3	66.3	88	62.6	0	0	---	0.00	29.465 
21:05	66.0	66.0	66.0	88	62.3	0	0	---	0.00	29.464 
21:10	65.8	65.8	65.8	88	62.1	0	0	---	0.00	29.467 
21:15	65.6	65.6	65.6	89	62.3	0	0	---	0.00	29.470 
21:20	65.5	65.5	65.5	90	62.5	0	0	---	0.00	29.472 
21:25	65.3	65.3	65.3	90	62.3	0	0	---	0.00	29.472 
21:30	65.2	65.2	65.2	91	62.5	0	0	---	0.00	29.472 
21:35	65.2	65.2	65.2	92	62.8	0	0	---	0.00	29.468 
21:40	65.0	65.0	65.0	92	62.6	0	0	---	0.00	29.465 
21:45	65.0	65.0	65.0	92	62.6	0	0	---	0.00	29.464 
21:50	64.8	64.8	64.8	92	62.4	0	0	---	0.00	29.462 
21:55	64.8	64.8	64.8	92	62.4	0	0	---	0.00	29.461 
22:00	64.8	64.8	64.8	93	62.7	0	0	---	0.00	29.460 
22:05	64.8	64.8	64.8	93	62.7	0	0	---	0.00	29.462 
22:10	64.8	64.8	64.8	93	62.7	0	0	---	0.00	29.465 
22:15	64.8	64.8	64.8	93	62.7	0	0	---	0.00	29.462 
22:20	64.8	64.8	64.8	94	63.0	0	0	---	0.00	29.461 
22:25	64.8	64.8	64.8	94	63.0	0	0	---	0.00	29.458 
22:30	64.8	64.8	64.8	94	63.0	0	0	---	0.00	29.458 
22:35	65.0	65.0	65.0	94	63.2	0	0	---	0.00	29.457 
22:40	65.0	65.0	65.0	94	63.2	0	0	---	0.00	29.457 
22:45	65.0	65.0	65.0	94	63.2	0	1	338	0.00	29.456 
22:50	65.0	65.0	65.0	94	63.2	0	0	---	0.00	29.454 
22:55	64.8	64.8	64.8	94	63.0	0	0	---	0.00	29.450 
23:00	64.8	64.8	64.8	94	63.0	0	0	---	0.00	29.448 
23:05	64.7	64.7	64.7	94	62.9	0	1	338	0.00	29.445 
23:10	64.7	64.7	64.7	93	62.6	0	0	---	0.00	29.441 
23:15	64.7	64.7	64.7	93	62.6	0	0	---	0.00	29.441 
23:20	64.5	64.5	64.5	93	62.4	0	0	---	0.00	29.441 
23:25	64.5	64.5	64.5	93	62.4	0	0	---	0.00	29.440 
23:30	64.5	64.5	64.5	93	62.4	0	1	338	0.00	29.440 
23:35	64.5	64.5	64.5	93	62.4	0	0	---	0.00	29.440 
23:40	64.5	64.5	64.5	93	62.4	0	0	---	0.00	29.439 
23:45	64.5	64.5	64.5	93	62.4	0	0	---	0.00	29.438 
23:50	64.3	64.3	64.3	93	62.2	0	1	338	0.00	29.436 
23:55	64.3	64.3	64.3	93	62.2	0	1	338	0.00	29.433 

CoCoRaHS
IN-AL-39
A2 Web Hosting
Creative Commons License
GoDaddy
Look for:

loaded 2017-12-12 14:46:18 • last modified 2010-11-18 10:43:29
Privacy PolicyDisclaimer
• wx.awcolley.com is powered by PmWiki v.2002016 •
• all content (unless otherwise noted) © 2017 A W Colley